Time;durP1;ratioP1;P1;durP2;ratioP2;P2;SDS_P1;SDS_P2;PMS_P1;PMS_P2;Temp;Humidity;BMP_temperature;BMP_pressure;BME280_temperature;BME280_humidity;BME280_pressure;Samples;Min_cycle;Max_cycle;Signal;HPM_P1;HPM_P2
2023/08/08 00:03:06;;;;;;;12.80;2.40;;;;;;;15.72;97.30;99775.44;181129;1259;43900;-88
2023/08/08 00:07:10;;;;;;;5.00;2.10;;;;;;;15.68;96.87;99775.15;181171;1260;58234;-88
2023/08/08 00:11:13;;;;;;;3.00;2.30;;;;;;;15.67;96.68;99778.84;181162;1260;43908;-88
2023/08/08 00:15:17;;;;;;;2.50;1.30;;;;;;;15.64;96.74;99772.92;181075;1260;43943;-88
2023/08/08 00:19:20;;;;;;;3.20;1.30;;;;;;;15.58;96.96;99774.92;181247;1259;43903;-89
2023/08/08 00:23:24;;;;;;;2.10;1.70;;;;;;;15.49;97.23;99778.73;181072;1260;43726;-89
2023/08/08 00:27:27;;;;;;;4.00;1.60;;;;;;;15.34;97.86;99785.00;181229;1259;59585;-88
2023/08/08 00:31:31;;;;;;;2.20;1.30;;;;;;;15.23;98.77;99793.36;181051;1259;43785;-89
2023/08/08 00:35:34;;;;;;;2.60;1.50;;;;;;;15.20;99.17;99801.19;181111;1259;43865;-89
2023/08/08 00:39:39;;;;;;;6.20;2.10;;;;;;;15.09;99.88;99807.55;181062;1259;44242;-88
2023/08/08 00:43:43;;;;;;;5.80;2.50;;;;;;;15.02;100.00;99810.30;181071;1259;44112;-89
2023/08/08 00:47:46;;;;;;;9.30;3.00;;;;;;;14.91;100.00;99815.91;181073;1259;58266;-89
2023/08/08 00:51:50;;;;;;;13.00;2.20;;;;;;;14.80;100.00;99814.05;181121;1259;44045;-90
2023/08/08 00:55:54;;;;;;;7.10;2.10;;;;;;;14.76;100.00;99809.96;181074;1260;43990;-89
2023/08/08 00:59:58;;;;;;;6.50;2.10;;;;;;;14.69;100.00;99811.41;181077;1259;44318;-89
2023/08/08 01:04:02;;;;;;;3.40;2.20;;;;;;;14.64;100.00;99809.92;181162;1259;43930;-89
2023/08/08 01:08:07;;;;;;;4.70;2.40;;;;;;;14.60;100.00;99812.18;181061;1260;58237;-89
2023/08/08 01:12:14;;;;;;;3.70;2.00;;;;;;;14.52;100.00;99813.36;181087;1259;43735;-90
2023/08/08 01:16:20;;;;;;;3.30;1.80;;;;;;;14.48;100.00;99814.52;181119;1259;50322;-90
2023/08/08 01:20:24;;;;;;;2.90;1.80;;;;;;;14.46;100.00;99818.77;181107;1259;49053;-90
2023/08/08 01:24:30;;;;;;;4.30;1.70;;;;;;;14.39;100.00;99807.95;181102;1259;43872;-90
2023/08/08 01:28:35;;;;;;;3.70;2.00;;;;;;;14.30;100.00;99811.53;181102;1259;58022;-90
2023/08/08 01:32:39;;;;;;;5.70;2.00;;;;;;;14.29;100.00;99810.58;181103;1259;44045;-89
2023/08/08 01:36:52;;;;;;;4.80;1.50;;;;;;;14.25;100.00;99812.80;181133;1259;44044;-89
2023/08/08 01:40:57;;;;;;;2.90;2.00;;;;;;;14.24;100.00;99817.35;181163;1259;43823;-90
2023/08/08 01:45:02;;;;;;;4.00;1.80;;;;;;;14.16;100.00;99809.08;181064;1259;43840;-90
2023/08/08 01:49:06;;;;;;;4.50;2.10;;;;;;;14.10;100.00;99807.23;181080;1259;59526;-90
2023/08/08 01:53:10;;;;;;;9.20;2.50;;;;;;;14.08;100.00;99807.39;181084;1260;43978;-90
2023/08/08 01:57:14;;;;;;;5.30;2.10;;;;;;;14.02;100.00;99800.38;181120;1259;43858;-90
2023/08/08 02:01:19;;;;;;;3.10;2.00;;;;;;;14.00;100.00;99801.68;181086;1259;44035;-90
2023/08/08 02:05:23;;;;;;;3.90;1.90;;;;;;;13.96;100.00;99808.17;181138;1260;43897;-90
2023/08/08 02:09:27;;;;;;;5.60;2.20;;;;;;;13.95;100.00;99806.33;181152;1259;57928;-90
2023/08/08 02:13:31;;;;;;;3.60;2.00;;;;;;;13.95;100.00;99805.23;181035;1259;44036;-90
2023/08/08 02:17:37;;;;;;;6.50;2.00;;;;;;;13.92;100.00;99804.50;181176;1259;49855;-90
2023/08/08 02:21:42;;;;;;;3.10;1.90;;;;;;;13.89;100.00;99801.61;181053;1259;47615;-91
2023/08/08 02:25:45;;;;;;;7.20;1.40;;;;;;;13.86;100.00;99808.06;181111;1259;44081;-89
2023/08/08 02:29:49;;;;;;;4.40;2.10;;;;;;;13.82;100.00;99803.83;181099;1259;59289;-90
2023/08/08 02:33:53;;;;;;;2.50;1.60;;;;;;;13.87;100.00;99808.02;181123;1259;44109;-90
2023/08/08 02:37:56;;;;;;;4.10;1.50;;;;;;;13.92;100.00;99804.81;181093;1259;44150;-88
2023/08/08 02:42:00;;;;;;;2.70;1.70;;;;;;;13.89;100.00;99806.23;181125;1259;43792;-89
2023/08/08 02:46:04;;;;;;;3.40;2.50;;;;;;;13.86;100.00;99808.43;181086;1259;44348;-90
2023/08/08 02:50:08;;;;;;;18.60;2.80;;;;;;;13.79;100.00;99808.20;181093;1259;57973;-90
2023/08/08 02:54:11;;;;;;;3.40;1.40;;;;;;;13.81;100.00;99802.86;181025;1259;43722;-90
2023/08/08 02:58:15;;;;;;;2.60;1.70;;;;;;;13.78;100.00;99801.84;181097;1259;43924;-89
2023/08/08 03:02:18;;;;;;;4.20;1.90;;;;;;;13.77;100.00;99800.48;181114;1259;44852;-89
2023/08/08 03:06:22;;;;;;;3.40;1.60;;;;;;;13.74;100.00;99802.85;181109;1259;44264;-89
2023/08/08 03:10:26;;;;;;;3.50;1.50;;;;;;;13.71;100.00;99800.83;181011;1261;58130;-89
2023/08/08 03:14:34;;;;;;;6.70;1.70;;;;;;;13.68;100.00;99804.55;181043;1259;44708;-90
2023/08/08 03:18:39;;;;;;;5.30;1.90;;;;;;;13.65;100.00;99807.00;181218;1259;43858;-90
2023/08/08 03:22:44;;;;;;;4.30;1.50;;;;;;;13.61;100.00;99805.88;181086;1259;44036;-90
2023/08/08 03:26:48;;;;;;;4.30;2.70;;;;;;;13.56;100.00;99808.05;181162;1259;44065;-91
2023/08/08 03:30:52;;;;;;;7.60;1.80;;;;;;;13.58;100.00;99806.27;181140;1259;59653;-90
2023/08/08 03:34:58;;;;;;;6.60;1.30;;;;;;;13.60;100.00;99810.89;181137;1259;50364;-91
2023/08/08 03:39:03;;;;;;;2.90;1.90;;;;;;;13.61;100.00;99813.80;181215;1259;43892;-90
2023/08/08 03:43:08;;;;;;;2.70;1.50;;;;;;;13.65;100.00;99821.23;181087;1259;44232;-91
2023/08/08 03:47:14;;;;;;;10.20;1.80;;;;;;;13.70;100.00;99826.08;181244;1259;43998;-91
2023/08/08 03:51:22;;;;;;;3.50;1.40;;;;;;;13.71;100.00;99830.11;181191;1259;58334;-90
2023/08/08 03:55:26;;;;;;;4.50;1.90;;;;;;;13.78;100.00;99833.84;181107;1259;44071;-90
2023/08/08 03:59:30;;;;;;;3.50;1.90;;;;;;;13.80;100.00;99835.96;181077;1259;44750;-91
2023/08/08 04:03:34;;;;;;;3.20;2.00;;;;;;;13.85;100.00;99841.90;181170;1261;44886;-90
2023/08/08 04:12:07;;;;;;;6.90;2.30;;;;;;;14.03;100.00;99851.95;168272;1256;92817;-62
2023/08/08 04:16:16;;;;;;;3.30;1.30;;;;;;;14.18;100.00;99859.66;181871;1257;43186;-63
2023/08/08 04:20:20;;;;;;;3.30;1.90;;;;;;;14.43;100.00;99863.14;181889;1258;42997;-64
2023/08/08 04:24:26;;;;;;;3.70;1.80;;;;;;;14.84;100.00;99867.87;181783;1260;43505;-64
2023/08/08 04:28:29;;;;;;;2.60;1.50;;;;;;;15.56;99.97;99867.05;181660;1257;43005;-63
2023/08/08 04:32:32;;;;;;;4.80;1.90;;;;;;;16.66;92.67;99864.44;181792;1257;59334;-62
2023/08/08 04:36:35;;;;;;;3.70;1.70;;;;;;;17.62;86.93;99866.80;181806;1257;43476;-63
2023/08/08 04:40:38;;;;;;;1.50;1.30;;;;;;;18.29;80.55;99871.52;181847;1257;43576;-64
2023/08/08 04:44:42;;;;;;;3.30;1.70;;;;;;;18.78;77.32;99875.81;181801;1257;43713;-63
2023/08/08 04:48:45;;;;;;;2.80;1.40;;;;;;;19.28;76.37;99884.15;181726;1257;43629;-63
2023/08/08 04:52:48;;;;;;;4.10;2.10;;;;;;;19.49;73.35;99881.89;181823;1257;59627;-64
2023/08/08 04:56:52;;;;;;;3.30;1.30;;;;;;;19.64;72.61;99885.65;181919;1257;43038;-63
2023/08/08 05:01:22;;;;;;;2.30;1.20;;;;;;;19.90;70.97;99883.34;181923;1257;43035;-64
2023/08/08 05:05:25;;;;;;;5.00;1.30;;;;;;;20.18;70.05;99887.63;181786;1257;43679;-65
2023/08/08 05:09:28;;;;;;;2.70;1.10;;;;;;;20.33;68.67;99887.44;181535;1256;181980;-64
2023/08/08 05:13:31;;;;;;;5.20;1.30;;;;;;;20.57;67.70;99893.05;181873;1257;59552;-63
2023/08/08 05:17:34;;;;;;;2.10;1.30;;;;;;;20.51;67.43;99884.27;181771;1257;43029;-64
2023/08/08 05:21:44;;;;;;;2.30;1.70;;;;;;;20.41;67.71;99886.52;181653;1261;43098;-64
2023/08/08 05:25:47;;;;;;;4.30;1.80;;;;;;;20.32;68.46;99892.45;181805;1257;43988;-64
2023/08/08 05:29:50;;;;;;;3.30;1.80;;;;;;;20.29;67.98;99895.30;181763;1257;43586;-64
2023/08/08 05:33:53;;;;;;;4.20;1.80;;;;;;;20.47;67.80;99891.08;181794;1257;60207;-64
2023/08/08 05:37:56;;;;;;;3.30;1.40;;;;;;;20.79;67.62;99890.77;181964;1256;43905;-64
2023/08/08 05:41:59;;;;;;;6.50;1.20;;;;;;;20.97;65.56;99887.88;181913;1257;43430;-64
2023/08/08 05:46:02;;;;;;;1.70;1.20;;;;;;;21.06;65.16;99885.10;181864;1257;43311;-63
2023/08/08 05:50:06;;;;;;;1.90;0.90;;;;;;;20.94;64.28;99887.82;181942;1257;43023;-65
2023/08/08 05:54:11;;;;;;;1.90;1.00;;;;;;;20.99;64.49;99887.03;182033;1258;58008;-62
2023/08/08 05:58:19;;;;;;;2.10;0.80;;;;;;;20.97;64.32;99883.91;181778;1257;43786;-63
2023/08/08 06:02:22;;;;;;;4.10;2.10;;;;;;;20.94;64.48;99883.27;181776;1257;43053;-64
2023/08/08 06:06:26;;;;;;;2.40;1.30;;;;;;;21.02;63.77;99879.85;181783;1257;43104;-64
2023/08/08 06:10:29;;;;;;;4.80;1.30;;;;;;;20.87;63.61;99878.73;181734;1257;43721;-63
2023/08/08 06:14:59;;;;;;;1.50;0.70;;;;;;;20.87;63.55;99875.78;181912;1257;58368;-63
2023/08/08 06:19:03;;;;;;;9.20;1.70;;;;;;;20.91;62.80;99873.88;181897;1257;43650;-63
2023/08/08 06:23:05;;;;;;;3.20;1.20;;;;;;;20.74;61.02;99868.85;181831;1257;43093;-63
2023/08/08 06:27:13;;;;;;;1.50;1.00;;;;;;;20.83;61.75;99869.15;181733;1256;43903;-63
2023/08/08 06:31:16;;;;;;;1.10;0.60;;;;;;;20.83;62.23;99873.13;182184;1256;43672;-64
2023/08/08 06:35:25;;;;;;;2.40;0.60;;;;;;;20.88;59.42;99870.34;181845;1257;59874;-64
2023/08/08 06:39:28;;;;;;;3.50;1.30;;;;;;;20.90;59.57;99863.92;181786;1258;43100;-63
2023/08/08 06:43:31;;;;;;;2.00;0.50;;;;;;;21.03;60.24;99866.58;181795;1257;42996;-64
2023/08/08 06:47:34;;;;;;;1.70;0.60;;;;;;;21.01;58.16;99860.66;181679;1256;43141;-64
2023/08/08 06:51:38;;;;;;;2.00;0.90;;;;;;;21.12;58.60;99857.77;181675;1257;43581;-64
2023/08/08 06:55:41;;;;;;;1.00;0.70;;;;;;;21.20;58.89;99858.66;181627;1257;58388;-64
2023/08/08 06:59:50;;;;;;;2.00;1.00;;;;;;;20.94;58.50;99859.61;181693;1257;43675;-64
2023/08/08 07:03:54;;;;;;;1.50;0.50;;;;;;;20.83;59.00;99866.27;181706;1257;43851;-63
2023/08/08 07:07:57;;;;;;;1.10;0.80;;;;;;;20.96;59.74;99867.95;181748;1257;43965;-64
2023/08/08 07:12:02;;;;;;;2.90;1.10;;;;;;;21.14;60.80;99872.83;181762;1256;43127;-64
2023/08/08 07:16:05;;;;;;;1.60;1.40;;;;;;;21.13;60.23;99869.46;181822;1257;58019;-63
2023/08/08 07:20:13;;;;;;;5.50;1.60;;;;;;;21.01;60.37;99871.02;181698;1257;43688;-64
2023/08/08 07:24:17;;;;;;;1.70;1.00;;;;;;;20.94;62.39;99882.07;181566;1257;43839;-64
2023/08/08 07:28:22;;;;;;;1.50;1.00;;;;;;;21.04;62.71;99889.70;181783;1257;43773;-64
2023/08/08 07:32:25;;;;;;;1.50;1.10;;;;;;;20.87;61.94;99886.48;181752;1259;43629;-64
2023/08/08 07:36:29;;;;;;;3.90;0.70;;;;;;;20.81;61.81;99890.88;181815;1256;58347;-64
2023/08/08 07:40:32;;;;;;;6.90;1.40;;;;;;;20.70;62.97;99897.66;181725;1258;43266;-63
2023/08/08 07:44:37;;;;;;;3.80;1.10;;;;;;;20.18;65.73;99902.20;181728;1258;43795;-63
2023/08/08 07:48:40;;;;;;;;;;;;;;;19.94;65.56;99899.27;181732;1259;43659;-64
2023/08/08 07:52:44;;;;;;;1.20;0.50;;;;;;;19.49;66.16;99906.38;181849;1258;42859;-64
2023/08/08 07:57:12;;;;;;;2.20;0.90;;;;;;;19.33;67.10;99912.00;182035;1259;58500;-62
2023/08/08 08:01:15;;;;;;;2.20;1.10;;;;;;;19.25;67.24;99909.84;181910;1257;43025;-63
2023/08/08 08:05:18;;;;;;;4.40;1.20;;;;;;;19.29;68.46;99906.98;181667;1257;43670;-62
2023/08/08 08:09:22;;;;;;;1.70;0.70;;;;;;;19.36;68.44;99906.59;181845;1257;43168;-62
2023/08/08 08:13:25;;;;;;;3.60;1.30;;;;;;;19.32;67.98;99900.57;181951;1257;43483;-64
2023/08/08 08:17:29;;;;;;;1.70;0.70;;;;;;;19.27;67.41;99902.08;181625;1259;58321;-63
2023/08/08 08:21:32;;;;;;;3.30;0.90;;;;;;;19.41;68.69;99906.09;181905;1259;43651;-64
2023/08/08 08:25:35;;;;;;;1.40;1.00;;;;;;;19.49;67.89;99904.46;181913;1256;42994;-64
2023/08/08 08:29:39;;;;;;;1.00;0.50;;;;;;;19.52;67.63;99901.30;181639;1257;44052;-63
2023/08/08 08:33:42;;;;;;;5.80;1.00;;;;;;;19.49;66.91;99902.05;181642;1257;43388;-63
2023/08/08 08:37:45;;;;;;;1.60;0.70;;;;;;;19.56;67.56;99898.30;181722;1257;59769;-63
2023/08/08 08:41:51;;;;;;;0.90;0.70;;;;;;;19.82;66.94;99901.38;181699;1257;43172;-64
2023/08/08 08:45:55;;;;;;;0.60;0.60;;;;;;;20.04;65.66;99897.02;181790;1257;42964;-64
2023/08/08 08:49:59;;;;;;;2.60;1.60;;;;;;;20.04;64.80;99891.73;181745;1257;43129;-64
2023/08/08 08:54:02;;;;;;;6.00;0.90;;;;;;;19.88;63.56;99889.61;181731;1257;43016;-64
2023/08/08 08:58:06;;;;;;;2.10;0.90;;;;;;;19.72;64.01;99895.80;181785;1257;58281;-64
2023/08/08 09:02:10;;;;;;;1.80;0.80;;;;;;;19.65;66.39;99899.56;181622;1259;43752;-63
2023/08/08 09:06:15;;;;;;;1.60;0.80;;;;;;;19.69;66.16;99898.27;181847;1257;43079;-64
2023/08/08 09:10:19;;;;;;;2.30;0.90;;;;;;;19.75;66.62;99898.83;181758;1257;43085;-63
2023/08/08 09:14:25;;;;;;;1.80;1.00;;;;;;;19.76;66.95;99901.45;181899;1256;43031;-64
2023/08/08 09:18:28;;;;;;;2.10;0.60;;;;;;;19.60;66.74;99906.88;182048;1257;58297;-63
2023/08/08 09:22:33;;;;;;;1.30;0.70;;;;;;;19.54;67.47;99905.71;181793;1257;43114;-63
2023/08/08 09:26:38;;;;;;;;;;;;;;;19.49;67.67;99906.20;182047;1257;43036;-64
2023/08/08 09:30:42;;;;;;;1.10;1.00;;;;;;;19.43;67.14;99910.34;182126;1256;42858;-63
2023/08/08 09:34:47;;;;;;;1.00;0.50;;;;;;;19.46;68.49;99914.98;181748;1258;43033;-63
2023/08/08 09:38:50;;;;;;;3.00;1.20;;;;;;;19.38;67.29;99911.84;181773;1257;59497;-63
2023/08/08 09:42:56;;;;;;;2.20;1.10;;;;;;;19.41;68.53;99910.65;181865;1257;43090;-63
2023/08/08 09:47:00;;;;;;;2.60;1.00;;;;;;;19.53;68.73;99915.29;181586;1257;43423;-64
2023/08/08 09:51:04;;;;;;;1.40;0.90;;;;;;;19.65;67.17;99914.14;181859;1257;43719;-63
2023/08/08 09:55:08;;;;;;;3.70;1.30;;;;;;;19.76;67.17;99908.52;181724;1257;43076;-63
2023/08/08 09:59:29;;;;;;;0.70;0.70;;;;;;;19.88;67.33;99903.86;181819;1257;58360;-64
2023/08/08 10:03:33;;;;;;;1.20;1.00;;;;;;;20.07;67.16;99896.38;182023;1257;43120;-63
2023/08/08 10:07:36;;;;;;;1.10;1.00;;;;;;;20.17;66.31;99897.06;181959;1256;43035;-63
2023/08/08 10:11:42;;;;;;;1.10;0.70;;;;;;;20.30;66.94;99889.15;182143;1260;43096;-63
2023/08/08 10:15:45;;;;;;;;;;;;;;;20.51;66.07;99886.98;181752;1256;43660;-63
2023/08/08 10:19:55;;;;;;;2.20;1.10;;;;;;;20.61;64.53;99884.05;181695;1257;59120;-64
2023/08/08 10:24:02;;;;;;;3.90;1.10;;;;;;;20.39;63.62;99882.39;181862;1259;43446;-64
2023/08/08 10:28:10;;;;;;;1.70;1.00;;;;;;;20.34;65.55;99884.07;181781;1257;43747;-63
2023/08/08 10:32:28;;;;;;;1.10;0.70;;;;;;;20.27;64.06;99882.66;181833;1257;43404;-63
2023/08/08 10:36:52;;;;;;;4.40;1.80;;;;;;;20.18;65.03;99884.64;181838;1257;43692;-63
2023/08/08 10:40:56;;;;;;;2.70;0.80;;;;;;;20.14;65.01;99881.42;181980;1257;58494;-64
2023/08/08 10:45:03;;;;;;;1.20;0.90;;;;;;;19.94;63.33;99876.60;181669;1257;43078;-60
2023/08/08 10:49:06;;;;;;;2.10;0.80;;;;;;;20.00;64.63;99878.02;181784;1257;43022;-61
2023/08/08 10:53:10;;;;;;;3.10;1.50;;;;;;;20.09;64.87;99871.35;181540;1260;43744;-61
2023/08/08 10:57:30;;;;;;;5.30;1.10;;;;;;;20.15;65.41;99863.94;181803;1257;43114;-61
2023/08/08 11:01:34;;;;;;;8.20;1.20;;;;;;;20.19;65.11;99867.04;181700;1257;57993;-62
2023/08/08 11:05:38;;;;;;;1.40;1.10;;;;;;;20.41;66.18;99859.08;181917;1257;43609;-61
2023/08/08 11:09:42;;;;;;;3.20;0.90;;;;;;;20.69;64.83;99858.19;181664;1257;43131;-61
2023/08/08 11:13:45;;;;;;;1.50;0.90;;;;;;;20.89;63.38;99848.58;182042;1257;44016;-62
2023/08/08 11:18:17;;;;;;;5.10;1.50;;;;;;;21.00;62.96;99843.65;181712;1259;43078;-61
2023/08/08 11:22:23;;;;;;;1.80;1.10;;;;;;;21.04;61.50;99837.76;181829;1257;58051;-62
2023/08/08 11:26:31;;;;;;;1.10;0.40;;;;;;;21.17;62.89;99846.58;181760;1257;43345;-62
2023/08/08 11:30:38;;;;;;;1.60;0.60;;;;;;;21.35;64.10;99841.70;181736;1256;43099;-63
2023/08/08 11:34:41;;;;;;;1.70;1.00;;;;;;;21.56;61.10;99840.95;181773;1257;43150;-61
2023/08/08 11:38:45;;;;;;;6.50;1.60;;;;;;;21.57;60.38;99835.69;181702;1257;43036;-61
2023/08/08 11:42:50;;;;;;;2.90;0.80;;;;;;;21.52;60.61;99836.31;181716;1258;58137;-64
2023/08/08 11:46:53;;;;;;;3.50;1.00;;;;;;;21.61;60.11;99838.30;181751;1257;43548;-62
2023/08/08 11:50:58;;;;;;;1.80;1.00;;;;;;;21.37;60.38;99841.31;181838;1259;43047;-61
2023/08/08 11:55:10;;;;;;;2.00;1.00;;;;;;;21.25;61.29;99842.31;181839;1256;43767;-62
2023/08/08 11:59:13;;;;;;;4.00;1.60;;;;;;;21.28;63.64;99849.77;181665;1259;43433;-64
2023/08/08 12:03:18;;;;;;;5.00;1.70;;;;;;;21.26;62.43;99849.39;182071;1257;57798;-63
2023/08/08 12:07:22;;;;;;;;;;;;;;;21.04;62.17;99853.02;181724;1257;43606;-64
2023/08/08 12:11:27;;;;;;;2.00;1.00;;;;;;;20.86;63.06;99854.64;181798;1257;42761;-63
2023/08/08 12:15:34;;;;;;;2.10;1.20;;;;;;;20.78;64.10;99858.77;181821;1256;43082;-64
2023/08/08 12:19:45;;;;;;;4.10;1.00;;;;;;;20.77;64.25;99852.11;181683;1258;43703;-63
2023/08/08 12:23:48;;;;;;;3.40;1.20;;;;;;;20.88;65.40;99852.49;181648;1257;59582;-64
2023/08/08 12:27:51;;;;;;;2.50;1.30;;;;;;;20.82;62.67;99846.64;181797;1260;43738;-63
2023/08/08 12:31:55;;;;;;;2.00;1.10;;;;;;;20.97;63.84;99845.36;181697;1262;43889;-64
2023/08/08 12:35:58;;;;;;;2.70;0.70;;;;;;;21.38;63.39;99845.34;181704;1257;43639;-64
2023/08/08 12:40:02;;;;;;;1.50;1.00;;;;;;;21.72;62.00;99839.65;181794;1257;43477;-63
2023/08/08 12:44:07;;;;;;;4.70;2.10;;;;;;;22.01;60.55;99840.80;181769;1256;58539;-63
2023/08/08 12:48:11;;;;;;;6.80;1.80;;;;;;;22.19;58.26;99833.13;182015;1257;43111;-63
2023/08/08 12:52:15;;;;;;;2.30;1.20;;;;;;;22.11;58.88;99840.16;181768;1257;43801;-62
2023/08/08 12:56:18;;;;;;;1.50;0.90;;;;;;;22.04;58.84;99835.94;181835;1256;43111;-63
2023/08/08 13:00:21;;;;;;;2.90;1.10;;;;;;;21.96;57.20;99830.45;181754;1257;43791;-63
2023/08/08 13:04:25;;;;;;;1.30;1.10;;;;;;;21.93;57.32;99821.67;181780;1257;59307;-63
2023/08/08 13:08:28;;;;;;;1.30;0.60;;;;;;;21.88;57.20;99819.98;182263;1256;43627;-63
2023/08/08 13:12:31;;;;;;;1.20;0.90;;;;;;;21.78;58.11;99821.89;181726;1257;43418;-62
2023/08/08 13:16:34;;;;;;;6.00;1.50;;;;;;;21.79;59.97;99819.80;181820;1257;43779;-58
2023/08/08 13:20:44;;;;;;;1.40;1.00;;;;;;;22.08;58.47;99801.22;181514;1260;43767;-59
2023/08/08 13:24:47;;;;;;;3.30;0.80;;;;;;;22.45;57.80;99804.65;181572;1254;89011;-90
2023/08/08 13:28:51;;;;;;;1.90;1.20;;;;;;;22.32;56.71;99806.02;181361;1257;44251;-88
2023/08/08 13:32:54;;;;;;;3.00;1.20;;;;;;;22.11;55.21;99805.95;181256;1257;43951;-89
2023/08/08 13:36:58;;;;;;;6.30;1.80;;;;;;;22.01;56.80;99804.36;181395;1257;44171;-88
2023/08/08 13:41:02;;;;;;;2.60;1.40;;;;;;;21.88;56.18;99799.44;181324;1256;43754;-88
2023/08/08 13:45:07;;;;;;;3.20;0.70;;;;;;;22.14;58.72;99791.85;181233;1257;60476;-89
2023/08/08 13:49:11;;;;;;;2.60;0.90;;;;;;;22.43;56.95;99784.93;181328;1257;43793;-89
2023/08/08 13:53:16;;;;;;;6.00;1.50;;;;;;;22.39;57.23;99791.54;181308;1257;43988;-87
2023/08/08 13:57:20;;;;;;;3.70;1.90;;;;;;;22.36;56.75;99787.34;181211;1256;43863;-89
2023/08/08 14:01:24;;;;;;;4.10;1.80;;;;;;;22.51;57.54;99786.74;181278;1257;43804;-89
2023/08/08 14:05:31;;;;;;;1.40;0.90;;;;;;;22.67;56.85;99786.82;181372;1257;59298;-88
2023/08/08 14:09:36;;;;;;;1.40;1.10;;;;;;;22.66;55.93;99785.38;181414;1257;43759;-86
2023/08/08 14:13:40;;;;;;;1.40;0.90;;;;;;;22.58;55.36;99793.80;181468;1257;43824;-87
2023/08/08 14:17:45;;;;;;;1.40;1.10;;;;;;;22.61;56.90;99791.33;181267;1257;43836;-88
2023/08/08 14:21:50;;;;;;;1.40;0.80;;;;;;;22.89;55.56;99788.52;181241;1256;43671;-87
2023/08/08 14:25:53;;;;;;;1.30;1.20;;;;;;;23.00;53.38;99784.15;181439;1257;59599;-87
2023/08/08 14:29:57;;;;;;;2.70;0.50;;;;;;;23.22;54.98;99775.30;181318;1257;43938;-87
2023/08/08 14:34:00;;;;;;;2.30;1.30;;;;;;;23.43;53.05;99775.04;181271;1257;45896;-87
2023/08/08 14:38:04;;;;;;;6.10;1.80;;;;;;;23.64;53.85;99775.59;181431;1257;44073;-86
2023/08/08 14:42:08;;;;;;;2.60;1.50;;;;;;;23.59;52.57;99775.08;181147;1257;45204;-88
2023/08/08 14:46:11;;;;;;;1.80;1.00;;;;;;;23.23;52.52;99787.14;181313;1257;57597;-87
2023/08/08 14:50:16;;;;;;;2.50;1.50;;;;;;;22.85;53.38;99785.30;181384;1257;44033;-87
2023/08/08 14:54:19;;;;;;;1.90;1.20;;;;;;;22.65;52.75;99787.88;181328;1257;44065;-86
2023/08/08 14:58:23;;;;;;;1.60;0.80;;;;;;;22.52;53.10;99792.36;181302;1258;44288;-87
2023/08/08 15:02:29;;;;;;;8.30;1.90;;;;;;;21.89;59.31;99823.83;181225;1256;43924;-86
2023/08/08 15:06:32;;;;;;;6.50;1.30;;;;;;;21.06;65.00;99828.89;181209;1257;59665;-87
2023/08/08 15:10:35;;;;;;;5.30;1.00;;;;;;;20.58;68.11;99823.81;181278;1257;43848;-86
2023/08/08 15:14:39;;;;;;;1.30;0.90;;;;;;;20.38;68.94;99817.85;181377;1257;44030;-87
2023/08/08 15:18:42;;;;;;;2.50;0.80;;;;;;;20.21;69.53;99817.06;181368;1256;43832;-87
2023/08/08 15:22:46;;;;;;;1.60;0.80;;;;;;;20.19;69.28;99816.27;181440;1256;44138;-86
2023/08/08 15:26:49;;;;;;;2.50;1.40;;;;;;;20.14;70.36;99816.13;181231;1257;59904;-87
2023/08/08 15:30:53;;;;;;;2.80;1.60;;;;;;;20.26;70.90;99814.02;181202;1256;43829;-86
2023/08/08 15:34:58;;;;;;;1.50;1.10;;;;;;;20.39;70.81;99803.71;181262;1261;43783;-87
2023/08/08 15:39:34;;;;;;;1.30;0.80;;;;;;;20.60;69.44;99798.09;181326;1257;44647;-86
2023/08/08 15:43:38;;;;;;;1.60;1.00;;;;;;;20.72;67.04;99790.93;181002;1259;44228;-83
2023/08/08 15:47:42;;;;;;;1.40;0.60;;;;;;;20.78;66.24;99786.91;181284;1258;60015;-83
2023/08/08 15:51:47;;;;;;;2.20;0.80;;;;;;;21.10;67.04;99783.02;181133;1258;43706;-83
2023/08/08 15:55:52;;;;;;;2.30;1.20;;;;;;;21.27;64.31;99773.75;181029;1257;43765;-84
2023/08/08 15:59:56;;;;;;;0.60;0.50;;;;;;;21.50;63.69;99767.39;181120;1258;43757;-84
2023/08/08 16:03:59;;;;;;;2.50;1.30;;;;;;;21.66;63.53;99762.47;181053;1258;43819;-83
2023/08/08 16:08:06;;;;;;;1.30;0.60;;;;;;;21.71;64.44;99756.97;181069;1259;58442;-83
2023/08/08 16:12:10;;;;;;;0.80;0.60;;;;;;;21.72;60.25;99751.60;181109;1258;44005;-83
2023/08/08 16:16:13;;;;;;;1.80;0.90;;;;;;;21.82;60.01;99748.28;181016;1259;43969;-83
2023/08/08 16:20:17;;;;;;;1.00;0.90;;;;;;;21.88;60.63;99750.29;181149;1258;44062;-83
2023/08/08 16:24:22;;;;;;;0.90;0.70;;;;;;;21.90;60.66;99750.88;181089;1258;43132;-83
2023/08/08 16:28:26;;;;;;;1.40;0.40;;;;;;;21.91;62.01;99755.95;181112;1259;58244;-83
2023/08/08 16:32:29;;;;;;;0.90;0.50;;;;;;;21.83;61.18;99758.55;181238;1258;43975;-84
2023/08/08 16:36:34;;;;;;;2.60;1.20;;;;;;;21.76;60.99;99764.52;181295;1258;43956;-83
2023/08/08 16:40:40;;;;;;;1.90;0.90;;;;;;;21.62;60.64;99766.46;181117;1258;43341;-83
2023/08/08 16:44:55;;;;;;;1.60;0.60;;;;;;;21.53;62.21;99758.10;181077;1259;43829;-83
2023/08/08 16:49:02;;;;;;;1.40;0.70;;;;;;;21.49;63.54;99760.40;181055;1260;59709;-83
2023/08/08 16:53:06;;;;;;;0.70;0.70;;;;;;;21.47;63.67;99761.08;181108;1257;44033;-83
2023/08/08 16:57:11;;;;;;;0.50;0.50;;;;;;;21.43;63.57;99765.03;181050;1259;44093;-83
2023/08/08 17:01:15;;;;;;;1.00;0.50;;;;;;;21.36;63.58;99764.36;181177;1258;43735;-83
2023/08/08 17:05:23;;;;;;;0.50;0.50;;;;;;;21.30;64.22;99764.16;181130;1259;43893;-84
2023/08/08 17:09:36;;;;;;;1.10;0.70;;;;;;;21.20;64.74;99771.28;179479;1256;58665;-88
2023/08/08 17:13:40;;;;;;;4.10;0.80;;;;;;;21.07;64.29;99774.90;180904;1258;44073;-88
2023/08/08 17:17:43;;;;;;;1.60;0.80;;;;;;;20.94;63.96;99767.91;181076;1258;43713;-89
2023/08/08 17:21:49;;;;;;;1.90;1.30;;;;;;;20.72;62.50;99773.35;181009;1258;43975;-88
2023/08/08 17:25:54;;;;;;;2.30;1.40;;;;;;;20.57;61.96;99785.69;180953;1258;44179;-88
2023/08/08 17:30:01;;;;;;;1.40;1.10;;;;;;;20.35;61.32;99789.51;180902;1258;59149;-87
2023/08/08 17:34:06;;;;;;;1.30;0.90;;;;;;;20.12;64.52;99790.08;180836;1258;43797;-87
2023/08/08 17:38:10;;;;;;;2.70;1.20;;;;;;;19.88;66.58;99791.07;180930;1259;44135;-88
2023/08/08 17:42:13;;;;;;;8.60;1.70;;;;;;;19.73;67.08;99790.42;180965;1259;43781;-87
2023/08/08 17:46:16;;;;;;;2.30;1.00;;;;;;;19.55;67.20;99799.16;181034;1258;43701;-88
2023/08/08 17:50:20;;;;;;;1.50;1.20;;;;;;;19.34;67.12;99802.05;181037;1259;57622;-88
2023/08/08 17:54:23;;;;;;;3.90;1.00;;;;;;;19.16;67.23;99813.20;181101;1258;44093;-87
2023/08/08 17:58:26;;;;;;;1.10;0.90;;;;;;;19.05;68.65;99822.52;181136;1257;43877;-88
2023/08/08 18:02:30;;;;;;;1.70;1.60;;;;;;;18.84;70.47;99838.16;181035;1258;44404;-87
2023/08/08 18:06:34;;;;;;;2.60;1.10;;;;;;;18.37;77.59;99857.34;180925;1258;43803;-85
2023/08/08 18:10:37;;;;;;;1.00;0.60;;;;;;;17.90;88.09;99876.97;180951;1259;57971;-84
2023/08/08 18:14:40;;;;;;;3.50;0.80;;;;;;;17.49;93.02;99866.55;181175;1258;44085;-85
2023/08/08 18:18:43;;;;;;;1.20;1.00;;;;;;;17.25;94.93;99856.05;181000;1258;43863;-85
2023/08/08 18:22:47;;;;;;;1.90;0.90;;;;;;;17.13;94.97;99854.29;180951;1258;43765;-85
2023/08/08 18:26:52;;;;;;;1.90;1.20;;;;;;;17.12;94.37;99858.20;180953;1258;43968;-85
2023/08/08 18:30:56;;;;;;;1.20;1.10;;;;;;;17.10;95.22;99864.61;180942;1258;57880;-85
2023/08/08 18:34:59;;;;;;;3.20;1.30;;;;;;;16.97;94.18;99873.11;181050;1258;43842;-85
2023/08/08 18:39:03;;;;;;;2.40;1.20;;;;;;;16.83;95.06;99886.54;180993;1258;44077;-85
2023/08/08 18:43:08;;;;;;;3.00;1.40;;;;;;;16.72;97.10;99894.40;180973;1258;43862;-85
2023/08/08 18:47:14;;;;;;;5.70;1.80;;;;;;;16.65;96.72;99907.86;180907;1258;43823;-85
2023/08/08 18:51:23;;;;;;;2.70;1.50;;;;;;;16.56;96.10;99905.81;180860;1259;58281;-85
2023/08/08 18:55:28;;;;;;;2.20;1.60;;;;;;;16.49;97.02;99903.77;181050;1258;43787;-85
2023/08/08 18:59:31;;;;;;;3.10;1.50;;;;;;;16.54;97.66;99908.08;180864;1262;43759;-85
2023/08/08 19:03:35;;;;;;;2.20;1.00;;;;;;;16.57;97.32;99911.41;180888;1258;43994;-85